Time;durP1;ratioP1;P1;durP2;ratioP2;P2;SDS_P1;SDS_P2;PMS_P1;PMS_P2;Temp;Humidity;BMP_temperature;BMP_pressure;BME280_temperature;BME280_humidity;BME280_pressure;Samples;Min_cycle;Max_cycle;Signal;HPM_P1;HPM_P2
2023/08/27 00:01:48;;;;;;;;;6.67;6.67;;;;;;;;5016510;28;32053;-63
2023/08/27 00:04:14;;;;;;;;;12.67;9.33;;;;;;;;5008416;28;31959;-64
2023/08/27 00:06:39;;;;;;;;;6.67;6.67;;;;;;;;5013459;28;31858;-64
2023/08/27 00:09:04;;;;;;;;;8.00;8.00;;;;;;;;5007209;28;51163;-65
2023/08/27 00:11:29;;;;;;;;;7.00;7.00;;;;;;;;5003117;28;51350;-65
2023/08/27 00:13:55;;;;;;;;;4.00;3.67;;;;;;;;5018921;28;32670;-66
2023/08/27 00:16:20;;;;;;;;;6.33;5.67;;;;;;;;5029171;28;31885;-65
2023/08/27 00:18:45;;;;;;;;;3.00;3.00;;;;;;;;5026331;28;31396;-64
2023/08/27 00:21:10;;;;;;;;;3.67;3.67;;;;;;;;5036729;28;31764;-66
2023/08/27 00:23:38;;;;;;;;;3.67;3.67;;;;;;;;5017050;28;31863;-67
2023/08/27 00:26:03;;;;;;;;;4.33;4.33;;;;;;;;5017408;28;31791;-65
2023/08/27 00:28:28;;;;;;;;;3.00;3.00;;;;;;;;5023810;28;31906;-65
2023/08/27 00:31:00;;;;;;;;;2.00;2.00;;;;;;;;5028783;28;31839;-65
2023/08/27 00:33:25;;;;;;;;;3.00;2.00;;;;;;;;5018562;28;32646;-63
2023/08/27 00:35:53;;;;;;;;;3.00;2.00;;;;;;;;5021887;28;32041;-64
2023/08/27 00:38:18;;;;;;;;;2.00;1.33;;;;;;;;5019981;28;31858;-64
2023/08/27 00:40:43;;;;;;;;;0.67;0.67;;;;;;;;5022889;28;31927;-64
2023/08/27 00:43:09;;;;;;;;;1.00;1.00;;;;;;;;5025178;28;31846;-64
2023/08/27 00:45:34;;;;;;;;;1.67;1.67;;;;;;;;5022485;28;32042;-66
2023/08/27 00:47:59;;;;;;;;;1.00;1.00;;;;;;;;5019972;28;31961;-63
2023/08/27 00:50:25;;;;;;;;;2.33;1.67;;;;;;;;5024748;28;32168;-64
2023/08/27 00:52:50;;;;;;;;;2.00;1.67;;;;;;;;5023420;28;31994;-66
2023/08/27 00:55:16;;;;;;;;;1.67;1.67;;;;;;;;5025511;28;31973;-65
2023/08/27 00:57:42;;;;;;;;;0.67;0.67;;;;;;;;5027436;28;31874;-65
2023/08/27 01:00:09;;;;;;;;;1.33;1.33;;;;;;;;5020527;28;44597;-65
2023/08/27 01:02:34;;;;;;;;;1.00;1.00;;;;;;;;5027338;28;32076;-67
2023/08/27 01:05:00;;;;;;;;;1.00;1.00;;;;;;;;5028744;28;31813;-67
2023/08/27 01:07:48;;;;;;;;;1.00;1.00;;;;;;;;5029169;28;31928;-65
2023/08/27 01:10:17;;;;;;;;;0.00;0.00;;;;;;;;5019167;28;32070;-65
2023/08/27 01:13:02;;;;;;;;;1.33;1.00;;;;;;;;5023903;28;32548;-64
2023/08/27 01:15:28;;;;;;;;;1.67;1.00;;;;;;;;5014960;28;31374;-65
2023/08/27 01:17:54;;;;;;;;;0.67;0.67;;;;;;;;5023316;28;32387;-65
2023/08/27 01:20:20;;;;;;;;;0.67;0.67;;;;;;;;5021917;28;32157;-65
2023/08/27 01:22:45;;;;;;;;;0.67;0.67;;;;;;;;5012109;28;32954;-67
2023/08/27 01:25:11;;;;;;;;;1.33;0.00;;;;;;;;5023347;28;31835;-65
2023/08/27 01:27:39;;;;;;;;;1.00;1.00;;;;;;;;5027617;28;31948;-64
2023/08/27 01:30:17;;;;;;;;;1.00;1.00;;;;;;;;5008573;28;32297;-64
2023/08/27 01:32:47;;;;;;;;;1.67;1.67;;;;;;;;5011924;28;34322;-64
2023/08/27 01:35:14;;;;;;;;;0.00;0.00;;;;;;;;5010490;28;31915;-64
2023/08/27 01:37:39;;;;;;;;;0.67;0.67;;;;;;;;5026417;28;31823;-63
2023/08/27 01:40:05;;;;;;;;;0.67;0.67;;;;;;;;5010498;28;31822;-64
2023/08/27 01:42:33;;;;;;;;;0.33;0.33;;;;;;;;5029738;28;33650;-64
2023/08/27 01:44:59;;;;;;;;;0.00;0.00;;;;;;;;5012434;28;31891;-64
2023/08/27 01:47:24;;;;;;;;;0.67;0.33;;;;;;;;5030183;28;31957;-63
2023/08/27 01:49:49;;;;;;;;;0.33;0.00;;;;;;;;5035980;28;31798;-65
2023/08/27 01:52:15;;;;;;;;;0.00;0.00;;;;;;;;5035592;28;32031;-66
2023/08/27 01:54:41;;;;;;;;;0.00;0.00;;;;;;;;5026617;28;31922;-65
2023/08/27 01:57:07;;;;;;;;;67.80;58.80;;;;;;;;5020642;28;31846;-64
2023/08/27 01:59:32;;;;;;;;;0.00;0.00;;;;;;;;5019935;28;32191;-64
2023/08/27 02:01:57;;;;;;;;;1.33;1.33;;;;;;;;5001667;28;32189;-65
2023/08/27 02:04:22;;;;;;;;;2.00;2.00;;;;;;;;5024019;28;31819;-63
2023/08/27 02:06:48;;;;;;;;;0.67;0.67;;;;;;;;5024600;28;32124;-64
2023/08/27 02:09:13;;;;;;;;;0.67;0.67;;;;;;;;5033968;28;31420;-64
2023/08/27 02:11:38;;;;;;;;;2.00;1.67;;;;;;;;5027370;28;31310;-64
2023/08/27 02:14:04;;;;;;;;;1.00;1.00;;;;;;;;5023945;28;31824;-64
2023/08/27 02:16:29;;;;;;;;;1.00;1.00;;;;;;;;5020838;28;32039;-64
2023/08/27 02:18:54;;;;;;;;;0.67;0.67;;;;;;;;5003401;28;32008;-64
2023/08/27 02:21:19;;;;;;;;;1.00;1.00;;;;;;;;5027860;28;32897;-65
2023/08/27 02:23:44;;;;;;;;;2.00;2.00;;;;;;;;5029139;28;31926;-65
2023/08/27 02:26:10;;;;;;;;;1.00;1.00;;;;;;;;5022801;28;32039;-65
2023/08/27 02:28:36;;;;;;;;;1.00;1.00;;;;;;;;5026128;28;31909;-64
2023/08/27 02:31:02;;;;;;;;;0.33;0.00;;;;;;;;5026248;28;31948;-64
2023/08/27 02:33:27;;;;;;;;;4.33;4.33;;;;;;;;5020709;28;31866;-64
2023/08/27 02:35:52;;;;;;;;;6.00;6.00;;;;;;;;5032641;28;31923;-64
2023/08/27 02:38:18;;;;;;;;;2.00;2.00;;;;;;;;5019049;28;31897;-64
2023/08/27 02:40:43;;;;;;;;;0.33;0.33;;;;;;;;5022382;28;32054;-64
2023/08/27 02:43:08;;;;;;;;;1.00;1.00;;;;;;;;5020178;28;31918;-65
2023/08/27 02:45:33;;;;;;;;;1.67;1.00;;;;;;;;5020911;28;31926;-65
2023/08/27 02:47:59;;;;;;;;;2.00;1.00;;;;;;;;5037797;28;31439;-65
2023/08/27 02:50:24;;;;;;;;;1.00;1.00;;;;;;;;5041811;28;51119;-65
2023/08/27 02:52:49;;;;;;;;;2.67;2.00;;;;;;;;5015278;28;50301;-65
2023/08/27 02:55:15;;;;;;;;;3.00;1.33;;;;;;;;5019397;28;31887;-65
2023/08/27 02:57:40;;;;;;;;;1.67;1.00;;;;;;;;5011418;28;44986;-64
2023/08/27 03:00:06;;;;;;;;;0.67;0.67;;;;;;;;5043372;28;31130;-64
2023/08/27 03:02:31;;;;;;;;;2.00;2.00;;;;;;;;5019392;28;36050;-64
2023/08/27 03:04:58;;;;;;;;;1.00;1.00;;;;;;;;5019889;28;40772;-64
2023/08/27 03:07:23;;;;;;;;;1.67;1.67;;;;;;;;5011499;28;32414;-64
2023/08/27 03:09:48;;;;;;;;;1.00;1.00;;;;;;;;5008859;28;31972;-64
2023/08/27 03:12:14;;;;;;;;;1.33;1.33;;;;;;;;5009154;28;31935;-65
2023/08/27 03:14:39;;;;;;;;;1.00;1.00;;;;;;;;5023207;28;31851;-65
2023/08/27 03:17:04;;;;;;;;;1.00;1.00;;;;;;;;5030821;28;38443;-65
2023/08/27 03:19:29;;;;;;;;;1.33;1.00;;;;;;;;5027782;28;43071;-65
2023/08/27 03:21:55;;;;;;;;;2.00;1.00;;;;;;;;5033790;28;43752;-64
2023/08/27 03:24:20;;;;;;;;;1.67;1.67;;;;;;;;5027281;28;32057;-64
2023/08/27 03:26:45;;;;;;;;;2.00;1.00;;;;;;;;5033903;28;31936;-64
2023/08/27 03:29:10;;;;;;;;;2.00;1.00;;;;;;;;5050216;28;8821;-64
2023/08/27 03:31:35;;;;;;;;;1.00;0.00;;;;;;;;5035260;28;32258;-64
2023/08/27 03:34:01;;;;;;;;;2.00;1.00;;;;;;;;5033533;28;31892;-64
2023/08/27 03:36:26;;;;;;;;;1.67;1.67;;;;;;;;5030492;28;31929;-64
2023/08/27 03:38:51;;;;;;;;;2.33;2.00;;;;;;;;5027891;28;50961;-65
2023/08/27 03:41:16;;;;;;;;;2.00;1.00;;;;;;;;5023552;28;31847;-64
2023/08/27 03:43:42;;;;;;;;;1.00;1.00;;;;;;;;5025305;28;28807;-64
2023/08/27 03:46:07;;;;;;;;;2.00;1.00;;;;;;;;5017255;28;32076;-65
2023/08/27 03:48:32;;;;;;;;;2.00;2.00;;;;;;;;5008940;28;32799;-64
2023/08/27 03:50:57;;;;;;;;;1.00;1.00;;;;;;;;5008741;28;31947;-65
2023/08/27 03:53:22;;;;;;;;;1.67;1.67;;;;;;;;5009053;28;32038;-64
2023/08/27 03:55:48;;;;;;;;;0.67;0.67;;;;;;;;5008847;28;31926;-64
2023/08/27 03:58:13;;;;;;;;;1.00;1.00;;;;;;;;5028763;28;32509;-65
2023/08/27 04:00:38;;;;;;;;;2.00;2.00;;;;;;;;5013459;28;31890;-65
2023/08/27 04:03:04;;;;;;;;;2.00;2.00;;;;;;;;5008792;28;32068;-64
2023/08/27 04:05:30;;;;;;;;;3.00;2.00;;;;;;;;4992210;28;31910;-65
2023/08/27 04:07:55;;;;;;;;;1.00;1.00;;;;;;;;5033723;28;33591;-65
2023/08/27 04:10:20;;;;;;;;;2.00;1.33;;;;;;;;5049429;28;8852;-64
2023/08/27 04:12:46;;;;;;;;;1.00;0.67;;;;;;;;5049708;28;8939;-65
2023/08/27 04:15:11;;;;;;;;;1.67;1.67;;;;;;;;5049487;28;8906;-64
2023/08/27 04:17:36;;;;;;;;;0.67;0.67;;;;;;;;5049142;28;12243;-64
2023/08/27 04:20:02;;;;;;;;;1.00;1.00;;;;;;;;5041799;28;8932;-64
2023/08/27 04:22:27;;;;;;;;;1.00;1.00;;;;;;;;5061840;28;8875;-64
2023/08/27 04:24:52;;;;;;;;;2.33;2.00;;;;;;;;5038899;28;51131;-63
2023/08/27 04:27:17;;;;;;;;;1.67;1.67;;;;;;;;5009068;28;52244;-63
2023/08/27 04:29:43;;;;;;;;;1.00;1.00;;;;;;;;5012587;28;50589;-64
2023/08/27 04:32:08;;;;;;;;;1.00;1.00;;;;;;;;5037135;28;8799;-64
2023/08/27 04:34:34;;;;;;;;;1.00;1.00;;;;;;;;5041920;28;8884;-64
2023/08/27 04:37:00;;;;;;;;;2.00;1.00;;;;;;;;5042968;28;8919;-64
2023/08/27 04:39:26;;;;;;;;;2.00;2.00;;;;;;;;5043481;28;8851;-64
2023/08/27 04:41:51;;;;;;;;;1.00;1.00;;;;;;;;5050620;28;8918;-64
2023/08/27 04:44:17;;;;;;;;;2.00;2.00;;;;;;;;5037438;28;8824;-64
2023/08/27 04:46:42;;;;;;;;;0.00;0.00;;;;;;;;5049776;28;8826;-63
2023/08/27 04:49:08;;;;;;;;;1.67;1.67;;;;;;;;5032800;28;16462;-64
2023/08/27 04:51:33;;;;;;;;;1.00;1.00;;;;;;;;5049134;28;10209;-64
2023/08/27 04:53:58;;;;;;;;;2.00;1.00;;;;;;;;5049553;28;9522;-65
2023/08/27 04:56:23;;;;;;;;;1.00;1.00;;;;;;;;5049678;28;8816;-64
2023/08/27 04:58:48;;;;;;;;;2.67;2.00;;;;;;;;5049325;28;8812;-64
2023/08/27 05:01:14;;;;;;;;;2.00;2.00;;;;;;;;5042851;28;8800;-64
2023/08/27 05:03:39;;;;;;;;;1.00;1.00;;;;;;;;5049476;28;8851;-64
2023/08/27 05:06:04;;;;;;;;;1.00;1.00;;;;;;;;5049281;28;8792;-64
2023/08/27 05:08:30;;;;;;;;;3.00;2.67;;;;;;;;5021214;28;50552;-64
2023/08/27 05:10:55;;;;;;;;;1.67;1.67;;;;;;;;5042427;28;8793;-64
2023/08/27 05:13:20;;;;;;;;;2.00;2.00;;;;;;;;5049563;28;8816;-64
2023/08/27 05:15:45;;;;;;;;;2.00;2.00;;;;;;;;5049514;28;9579;-64
2023/08/27 05:18:10;;;;;;;;;1.00;1.00;;;;;;;;5050065;28;8820;-63
2023/08/27 05:20:38;;;;;;;;;1.00;1.00;;;;;;;;5056954;28;9557;-65
2023/08/27 05:23:04;;;;;;;;;2.00;2.00;;;;;;;;5050078;28;8811;-65
2023/08/27 05:25:29;;;;;;;;;1.00;1.00;;;;;;;;5042818;28;8830;-65
2023/08/27 05:27:54;;;;;;;;;2.00;1.00;;;;;;;;5052840;28;8820;-65
2023/08/27 05:30:20;;;;;;;;;3.33;2.00;;;;;;;;5052774;28;8899;-65
2023/08/27 05:32:45;;;;;;;;;1.00;1.00;;;;;;;;5052750;28;8840;-65
2023/08/27 05:35:10;;;;;;;;;2.00;2.00;;;;;;;;5057779;28;8823;-65
2023/08/27 05:37:36;;;;;;;;;1.67;1.67;;;;;;;;5052281;28;8967;-66
2023/08/27 05:40:02;;;;;;;;;2.00;2.00;;;;;;;;5052692;28;8793;-65
2023/08/27 05:42:28;;;;;;;;;3.67;1.67;;;;;;;;5027222;28;8827;-66
2023/08/27 05:44:53;;;;;;;;;1.67;1.67;;;;;;;;5049605;28;9021;-65
2023/08/27 05:47:18;;;;;;;;;1.00;1.00;;;;;;;;5048951;28;8855;-65
2023/08/27 05:49:43;;;;;;;;;1.00;1.00;;;;;;;;5032691;28;9623;-65
2023/08/27 05:52:09;;;;;;;;;3.00;2.00;;;;;;;;5032299;28;8802;-65
2023/08/27 05:54:34;;;;;;;;;1.00;1.00;;;;;;;;5032509;28;8820;-65
2023/08/27 05:57:00;;;;;;;;;1.00;1.00;;;;;;;;5051860;28;8839;-65
2023/08/27 05:59:25;;;;;;;;;2.00;2.00;;;;;;;;5052344;28;8803;-64
2023/08/27 06:01:51;;;;;;;;;1.33;1.00;;;;;;;;5037466;28;8835;-65
2023/08/27 06:04:16;;;;;;;;;2.00;1.00;;;;;;;;5034443;28;8805;-65
2023/08/27 06:06:41;;;;;;;;;1.00;1.00;;;;;;;;5050296;28;11157;-65
2023/08/27 06:09:06;;;;;;;;;2.00;1.33;;;;;;;;5051533;28;8797;-66
2023/08/27 06:11:32;;;;;;;;;1.33;1.33;;;;;;;;5055270;28;9598;-65
2023/08/27 06:13:58;;;;;;;;;1.33;1.00;;;;;;;;5049825;28;8792;-65
2023/08/27 06:16:23;;;;;;;;;1.00;1.00;;;;;;;;5043219;28;8982;-65
2023/08/27 06:18:49;;;;;;;;;1.00;1.00;;;;;;;;5026009;28;51140;-65
2023/08/27 06:21:14;;;;;;;;;1.00;1.00;;;;;;;;5027279;28;50912;-65
2023/08/27 06:23:39;;;;;;;;;0.67;0.67;;;;;;;;5050149;28;8820;-65
2023/08/27 06:26:05;;;;;;;;;1.67;1.00;;;;;;;;5037385;28;44691;-65
2023/08/27 06:28:30;;;;;;;;;2.00;1.67;;;;;;;;5046284;28;8929;-65
2023/08/27 06:30:55;;;;;;;;;1.00;0.67;;;;;;;;5050023;28;25078;-65
2023/08/27 06:33:21;;;;;;;;;0.67;0.67;;;;;;;;5036848;28;17084;-65
2023/08/27 06:35:46;;;;;;;;;1.00;1.00;;;;;;;;5044483;28;8808;-67
2023/08/27 06:38:11;;;;;;;;;1.00;0.67;;;;;;;;5048540;28;9520;-65
2023/08/27 06:40:36;;;;;;;;;1.00;1.00;;;;;;;;5051219;28;8832;-65
2023/08/27 06:43:02;;;;;;;;;1.00;1.00;;;;;;;;5041180;28;8838;-66
2023/08/27 06:45:28;;;;;;;;;1.00;0.25;;;;;;;;5027119;28;8857;-65
2023/08/27 06:47:53;;;;;;;;;2.00;1.00;;;;;;;;5033938;28;8803;-65
2023/08/27 06:50:20;;;;;;;;;1.00;1.00;;;;;;;;5037808;28;41023;-65
2023/08/27 06:52:45;;;;;;;;;0.00;0.00;;;;;;;;5036636;28;8780;-65
2023/08/27 06:55:10;;;;;;;;;1.00;0.33;;;;;;;;5052900;28;8830;-66
2023/08/27 06:57:35;;;;;;;;;0.00;0.00;;;;;;;;5051158;28;8926;-64
2023/08/27 07:00:01;;;;;;;;;1.00;1.00;;;;;;;;5044916;28;8837;-66
2023/08/27 07:02:27;;;;;;;;;2.00;1.00;;;;;;;;5051931;28;8926;-64
2023/08/27 07:04:52;;;;;;;;;2.75;1.50;;;;;;;;5042065;28;8815;-66
2023/08/27 07:07:18;;;;;;;;;2.00;1.00;;;;;;;;5031012;28;8820;-64
2023/08/27 07:09:43;;;;;;;;;1.33;1.00;;;;;;;;5050819;28;8828;-64
2023/08/27 07:12:08;;;;;;;;;0.33;0.33;;;;;;;;5049159;28;8839;-66
2023/08/27 07:14:33;;;;;;;;;1.00;1.00;;;;;;;;5045647;28;8866;-65
2023/08/27 07:16:59;;;;;;;;;1.33;1.33;;;;;;;;5043155;28;8914;-64
2023/08/27 07:19:24;;;;;;;;;1.33;1.00;;;;;;;;5037285;28;8834;-64
2023/08/27 07:21:50;;;;;;;;;2.00;2.00;;;;;;;;5044143;28;11434;-65
2023/08/27 07:24:15;;;;;;;;;0.00;0.00;;;;;;;;5030447;28;8831;-66
2023/08/27 07:26:40;;;;;;;;;1.00;1.00;;;;;;;;5048189;28;8827;-64
2023/08/27 07:29:05;;;;;;;;;2.33;2.00;;;;;;;;5039527;28;8810;-64
2023/08/27 07:31:34;;;;;;;;;2.00;1.67;;;;;;;;5047331;28;8898;-64
2023/08/27 07:33:59;;;;;;;;;3.75;2.00;;;;;;;;5042730;28;8792;-65
2023/08/27 07:36:24;;;;;;;;;3.00;3.00;;;;;;;;5045696;28;50348;-65
2023/08/27 07:38:49;;;;;;;;;1.00;1.00;;;;;;;;5049826;28;8809;-65
2023/08/27 07:41:14;;;;;;;;;1.67;1.33;;;;;;;;5020346;28;51163;-63
2023/08/27 07:43:40;;;;;;;;;1.33;1.33;;;;;;;;5014412;28;51084;-65
2023/08/27 07:46:05;;;;;;;;;1.00;1.00;;;;;;;;5012388;28;51089;-64
2023/08/27 07:48:31;;;;;;;;;1.67;1.67;;;;;;;;5041224;28;8902;-65
2023/08/27 07:50:57;;;;;;;;;3.00;1.00;;;;;;;;5045108;28;8892;-65
2023/08/27 07:53:22;;;;;;;;;7.00;7.00;;;;;;;;5015112;28;51005;-64
2023/08/27 07:55:48;;;;;;;;;1.00;1.00;;;;;;;;5004268;28;50920;-65
2023/08/27 07:58:13;;;;;;;;;1.00;0.67;;;;;;;;5008741;28;51122;-65
2023/08/27 08:00:39;;;;;;;;;1.00;1.00;;;;;;;;5002085;28;51825;-65
2023/08/27 08:03:04;;;;;;;;;2.00;1.00;;;;;;;;5024221;28;50948;-65
2023/08/27 08:05:29;;;;;;;;;0.67;0.67;;;;;;;;5023496;28;51018;-64
2023/08/27 08:07:54;;;;;;;;;2.33;2.33;;;;;;;;5024193;28;51209;-64
2023/08/27 08:10:20;;;;;;;;;1.00;1.00;;;;;;;;5044331;28;52253;-64
2023/08/27 08:12:46;;;;;;;;;2.25;1.75;;;;;;;;5051978;28;8804;-63
2023/08/27 08:15:11;;;;;;;;;2.00;2.00;;;;;;;;5031527;28;9606;-64
2023/08/27 08:17:36;;;;;;;;;3.00;2.33;;;;;;;;5049595;28;8837;-64
2023/08/27 08:20:05;;;;;;;;;1.67;1.67;;;;;;;;5048175;28;8805;-64
2023/08/27 08:22:30;;;;;;;;;1.75;1.00;;;;;;;;5037133;28;8845;-64
2023/08/27 08:24:55;;;;;;;;;1.00;1.00;;;;;;;;5040874;28;8822;-68
2023/08/27 08:27:21;;;;;;;;;2.00;2.00;;;;;;;;5036154;28;8902;-69
2023/08/27 08:29:46;;;;;;;;;1.00;1.00;;;;;;;;5049620;28;8792;-68
2023/08/27 08:32:11;;;;;;;;;2.00;2.00;;;;;;;;5046217;28;8849;-68
2023/08/27 08:34:39;;;;;;;;;1.00;1.00;;;;;;;;5040748;28;51244;-68
2023/08/27 08:37:04;;;;;;;;;1.00;1.00;;;;;;;;5004384;28;51576;-68
2023/08/27 08:39:29;;;;;;;;;2.00;1.00;;;;;;;;5040298;28;52246;-69
2023/08/27 08:42:15;;;;;;;;;1.00;1.00;;;;;;;;5048355;28;9010;-68
2023/08/27 08:44:43;;;;;;;;;0.25;0.25;;;;;;;;5052162;28;8797;-68
2023/08/27 08:47:09;;;;;;;;;1.00;1.00;;;;;;;;5048095;28;9662;-67
2023/08/27 08:49:37;;;;;;;;;1.50;1.50;;;;;;;;5048022;28;8825;-67
2023/08/27 08:52:07;;;;;;;;;1.00;1.00;;;;;;;;5045846;28;8840;-66
2023/08/27 08:54:32;;;;;;;;;1.00;1.00;;;;;;;;5046945;28;8787;-66
2023/08/27 08:57:00;;;;;;;;;0.33;0.33;;;;;;;;5036274;28;8791;-66
2023/08/27 08:59:28;;;;;;;;;3.25;1.75;;;;;;;;5051137;28;8788;-68
2023/08/27 09:01:53;;;;;;;;;3.00;2.75;;;;;;;;5035177;28;8849;-68
2023/08/27 09:04:19;;;;;;;;;1.00;1.00;;;;;;;;5052098;28;9599;-66
2023/08/27 09:06:44;;;;;;;;;0.00;0.00;;;;;;;;5044832;28;8819;-65
2023/08/27 09:09:10;;;;;;;;;0.00;0.00;;;;;;;;5041130;28;8865;-66
2023/08/27 09:11:36;;;;;;;;;1.00;1.00;;;;;;;;5045493;28;9323;-72
2023/08/27 09:14:03;;;;;;;;;0.75;0.75;;;;;;;;5032015;28;8795;-64
2023/08/27 09:16:29;;;;;;;;;0.25;0.25;;;;;;;;5045382;28;8811;-68
2023/08/27 09:18:55;;;;;;;;;1.75;1.75;;;;;;;;5041036;28;9682;-67
2023/08/27 09:21:20;;;;;;;;;1.00;1.00;;;;;;;;5061485;28;8884;-67
2023/08/27 09:23:45;;;;;;;;;2.33;1.00;;;;;;;;5047841;28;8868;-67
2023/08/27 09:26:13;;;;;;;;;1.00;1.00;;;;;;;;5046985;28;8877;-67
2023/08/27 09:28:38;;;;;;;;;2.00;1.75;;;;;;;;5041411;28;8930;-67
2023/08/27 09:31:04;;;;;;;;;1.33;1.00;;;;;;;;5045086;28;8914;-67
2023/08/27 09:33:40;;;;;;;;;1.00;1.00;;;;;;;;5051318;28;8846;-68
2023/08/27 09:36:06;;;;;;;;;1.00;1.00;;;;;;;;5033109;28;8878;-68
2023/08/27 09:38:32;;;;;;;;;1.75;1.25;;;;;;;;5047234;28;8835;-68
2023/08/27 09:41:08;;;;;;;;;2.00;1.00;;;;;;;;5058348;28;8818;-68
2023/08/27 09:43:33;;;;;;;;;2.00;2.00;;;;;;;;5030020;28;8834;-68
2023/08/27 09:45:58;;;;;;;;;1.00;1.00;;;;;;;;5043221;28;8815;-68
2023/08/27 09:48:25;;;;;;;;;1.00;1.00;;;;;;;;5041786;28;8800;-69
2023/08/27 09:51:01;;;;;;;;;1.00;1.00;;;;;;;;5050571;28;8813;-69
2023/08/27 09:53:27;;;;;;;;;2.00;2.00;;;;;;;;5048148;28;8781;-69
2023/08/27 09:55:52;;;;;;;;;1.00;1.00;;;;;;;;5051396;28;8812;-68
2023/08/27 09:58:17;;;;;;;;;3.00;2.00;;;;;;;;5032885;28;8826;-69
2023/08/27 10:00:42;;;;;;;;;2.67;2.67;;;;;;;;5044251;28;8834;-68
2023/08/27 10:03:08;;;;;;;;;3.67;3.00;;;;;;;;5046230;28;8843;-69
2023/08/27 10:05:34;;;;;;;;;1.00;1.00;;;;;;;;5031407;28;8840;-69
2023/08/27 10:08:00;;;;;;;;;1.25;1.25;;;;;;;;5047224;28;8789;-69
2023/08/27 10:10:26;;;;;;;;;4.00;4.00;;;;;;;;5045777;28;8800;-67
2023/08/27 10:12:52;;;;;;;;;2.75;2.75;;;;;;;;5043546;28;8802;-69
2023/08/27 10:15:18;;;;;;;;;2.33;2.33;;;;;;;;5042920;28;8814;-69
2023/08/27 10:17:43;;;;;;;;;1.33;1.00;;;;;;;;5038008;28;8873;-67
2023/08/27 10:20:09;;;;;;;;;2.67;2.00;;;;;;;;5044352;28;8807;-68
2023/08/27 10:22:35;;;;;;;;;2.33;2.33;;;;;;;;5045471;28;9617;-69
2023/08/27 10:25:01;;;;;;;;;3.00;3.00;;;;;;;;5045490;28;9691;-67
2023/08/27 10:27:27;;;;;;;;;2.75;2.00;;;;;;;;5048011;28;9444;-67
2023/08/27 10:29:53;;;;;;;;;1.33;1.00;;;;;;;;5039330;28;8894;-67
2023/08/27 10:32:18;;;;;;;;;1.00;1.00;;;;;;;;5028348;28;8834;-67
2023/08/27 10:34:44;;;;;;;;;1.67;1.00;;;;;;;;5043397;28;9582;-67
2023/08/27 10:37:11;;;;;;;;;2.00;1.00;;;;;;;;5030886;28;8855;-67
2023/08/27 10:39:37;;;;;;;;;3.00;2.00;;;;;;;;5050307;28;8796;-67
2023/08/27 10:42:02;;;;;;;;;1.00;1.00;;;;;;;;5028871;28;8849;-67
2023/08/27 10:44:28;;;;;;;;;1.00;1.00;;;;;;;;5033190;28;8850;-67
2023/08/27 10:47:06;;;;;;;;;1.00;1.00;;;;;;;;5038521;28;8836;-68
2023/08/27 10:49:36;;;;;;;;;1.25;1.00;;;;;;;;5040713;28;8787;-68
2023/08/27 10:52:11;;;;;;;;;2.00;2.00;;;;;;;;5040422;28;8803;-68
2023/08/27 10:54:38;;;;;;;;;1.00;1.00;;;;;;;;5014551;28;8779;-68
2023/08/27 10:57:36;;;;;;;;;0.00;0.00;;;;;;;;5045181;28;8767;-68
2023/08/27 11:00:12;;;;;;;;;0.25;0.25;;;;;;;;5014710;28;8821;-69
2023/08/27 11:02:58;;;;;;;;;1.50;1.50;;;;;;;;5042238;28;8837;-68
2023/08/27 11:05:28;;;;;;;;;1.00;1.00;;;;;;;;5042395;28;8877;-68
2023/08/27 11:07:56;;;;;;;;;0.00;0.00;;;;;;;;5017844;28;8793;-68
2023/08/27 11:10:29;;;;;;;;;1.00;1.00;;;;;;;;5047535;28;8815;-68
2023/08/27 11:12:54;;;;;;;;;1.50;1.50;;;;;;;;5045630;28;8797;-68
2023/08/27 11:15:25;;;;;;;;;1.00;1.00;;;;;;;;5041533;28;8820;-69
2023/08/27 11:17:51;;;;;;;;;1.00;1.00;;;;;;;;5040050;28;8803;-68
2023/08/27 11:20:23;;;;;;;;;3.00;2.00;;;;;;;;5042606;28;8889;-67
2023/08/27 11:22:59;;;;;;;;;2.00;2.00;;;;;;;;5054450;28;8830;-67
2023/08/27 11:25:26;;;;;;;;;1.25;1.25;;;;;;;;5054370;28;8871;-67
2023/08/27 11:27:52;;;;;;;;;1.00;1.00;;;;;;;;5040179;28;8869;-67
2023/08/27 11:30:18;;;;;;;;;1.00;1.00;;;;;;;;5041010;28;8838;-67
2023/08/27 11:32:43;;;;;;;;;3.00;2.00;;;;;;;;5040783;28;8802;-69
2023/08/27 11:35:11;;;;;;;;;1.00;1.00;;;;;;;;5041656;28;8783;-68
2023/08/27 11:37:37;;;;;;;;;2.00;2.00;;;;;;;;5039814;28;8765;-67
2023/08/27 11:40:12;;;;;;;;;2.00;1.00;;;;;;;;5042729;28;8805;-67
2023/08/27 11:42:37;;;;;;;;;0.25;0.25;;;;;;;;5041057;28;8810;-67
2023/08/27 11:45:03;;;;;;;;;2.00;2.00;;;;;;;;5040447;28;8823;-68
2023/08/27 11:47:28;;;;;;;;;0.33;0.33;;;;;;;;5022195;28;8832;-68
2023/08/27 11:49:58;;;;;;;;;2.00;2.00;;;;;;;;5043069;28;8901;-68
2023/08/27 11:52:23;;;;;;;;;1.25;1.25;;;;;;;;5044995;28;8830;-67
2023/08/27 11:54:49;;;;;;;;;1.33;1.33;;;;;;;;5043829;28;8826;-68
2023/08/27 11:57:18;;;;;;;;;2.00;1.00;;;;;;;;5042424;28;8823;-68
2023/08/27 11:59:46;;;;;;;;;1.00;1.00;;;;;;;;5024373;28;8789;-68
2023/08/27 12:02:13;;;;;;;;;4.25;3.75;;;;;;;;5038944;28;8833;-67
2023/08/27 12:04:39;;;;;;;;;3.00;3.00;;;;;;;;5042117;28;8810;-68
2023/08/27 12:07:05;;;;;;;;;2.00;2.00;;;;;;;;5045942;28;9617;-67
2023/08/27 12:09:33;;;;;;;;;2.00;2.00;;;;;;;;5046308;28;8781;-68
2023/08/27 12:12:00;;;;;;;;;2.25;2.00;;;;;;;;5048493;28;8828;-67
2023/08/27 12:14:26;;;;;;;;;2.00;2.00;;;;;;;;5048574;28;8784;-67
2023/08/27 12:16:52;;;;;;;;;3.00;3.00;;;;;;;;5045972;28;8800;-67
2023/08/27 12:19:21;;;;;;;;;1.67;1.67;;;;;;;;5049306;28;8784;-68
2023/08/27 12:21:53;;;;;;;;;7.75;7.75;;;;;;;;5046693;28;8816;-68
2023/08/27 12:24:26;;;;;;;;;3.00;3.00;;;;;;;;5048214;28;8801;-68
2023/08/27 12:26:51;;;;;;;;;1.75;1.00;;;;;;;;5036563;28;8767;-69
2023/08/27 12:29:17;;;;;;;;;1.00;1.00;;;;;;;;5033133;28;8849;-68
2023/08/27 12:31:44;;;;;;;;;3.00;1.00;;;;;;;;5047129;28;8802;-68
2023/08/27 12:34:10;;;;;;;;;2.00;2.00;;;;;;;;5052220;28;8857;-68
2023/08/27 12:36:35;;;;;;;;;3.00;3.00;;;;;;;;5047795;28;8993;-69
2023/08/27 12:39:00;;;;;;;;;3.33;3.33;;;;;;;;5045891;28;8868;-68
2023/08/27 12:41:26;;;;;;;;;2.00;2.00;;;;;;;;5051960;28;9594;-69
2023/08/27 12:43:52;;;;;;;;;3.00;3.00;;;;;;;;5042126;28;8821;-68
2023/08/27 12:46:17;;;;;;;;;2.25;2.25;;;;;;;;5047386;28;9848;-67
2023/08/27 12:48:44;;;;;;;;;1.00;1.00;;;;;;;;5037427;28;8990;-68
2023/08/27 12:51:09;;;;;;;;;1.00;1.00;;;;;;;;5047652;28;8777;-63
2023/08/27 12:53:34;;;;;;;;;2.00;2.00;;;;;;;;5045870;28;8823;-66
2023/08/27 12:56:00;;;;;;;;;2.00;2.00;;;;;;;;5042620;28;8850;-65
2023/08/27 12:58:25;;;;;;;;;2.00;2.00;;;;;;;;5049030;28;51004;-62
2023/08/27 13:00:50;;;;;;;;;2.00;2.00;;;;;;;;5031870;28;50358;-65
2023/08/27 13:03:16;;;;;;;;;1.00;1.00;;;;;;;;5024051;28;51131;-65
2023/08/27 13:05:41;;;;;;;;;1.00;1.00;;;;;;;;5010219;28;51049;-62
2023/08/27 13:08:06;;;;;;;;;2.00;2.00;;;;;;;;5005575;28;51163;-63
2023/08/27 13:10:31;;;;;;;;;0.00;0.00;;;;;;;;5041197;28;8897;-62
2023/08/27 13:12:56;;;;;;;;;2.67;2.00;;;;;;;;5039330;28;8785;-63
2023/08/27 13:15:22;;;;;;;;;0.33;0.00;;;;;;;;5046009;28;8939;-62
2023/08/27 13:17:47;;;;;;;;;2.00;2.00;;;;;;;;5038616;28;8777;-64
2023/08/27 13:20:13;;;;;;;;;1.00;1.00;;;;;;;;5043702;28;8865;-62
2023/08/27 13:22:38;;;;;;;;;1.00;1.00;;;;;;;;5049230;28;8855;-62
2023/08/27 13:25:04;;;;;;;;;1.00;1.00;;;;;;;;5041015;28;8822;-65
2023/08/27 13:27:30;;;;;;;;;2.00;1.75;;;;;;;;5040138;28;8932;-62
2023/08/27 13:29:55;;;;;;;;;2.00;2.00;;;;;;;;5047472;28;8781;-63
2023/08/27 13:32:20;;;;;;;;;1.67;1.33;;;;;;;;5043235;28;8826;-62
2023/08/27 13:34:46;;;;;;;;;2.00;2.00;;;;;;;;5046139;28;8886;-63
2023/08/27 13:37:11;;;;;;;;;1.00;1.00;;;;;;;;5044589;28;8800;-62
2023/08/27 13:39:36;;;;;;;;;1.33;1.00;;;;;;;;5042656;28;8832;-63
2023/08/27 13:42:04;;;;;;;;;3.00;3.00;;;;;;;;5023513;28;9012;-63
2023/08/27 13:44:29;;;;;;;;;0.75;0.75;;;;;;;;5047508;28;8784;-63
2023/08/27 13:46:55;;;;;;;;;1.00;0.33;;;;;;;;5047253;28;8797;-63
2023/08/27 13:49:20;;;;;;;;;3.67;2.67;;;;;;;;5043691;28;8785;-63
2023/08/27 13:51:45;;;;;;;;;3.00;2.00;;;;;;;;5050085;28;8796;-63
2023/08/27 13:54:10;;;;;;;;;6.67;6.33;;;;;;;;5047441;28;8834;-63
2023/08/27 13:56:36;;;;;;;;;2.00;2.00;;;;;;;;5047885;28;8816;-62
2023/08/27 13:59:02;;;;;;;;;2.00;2.00;;;;;;;;5050573;28;9005;-63
2023/08/27 14:01:28;;;;;;;;;2.00;2.00;;;;;;;;5041883;28;8795;-62
2023/08/27 14:03:53;;;;;;;;;0.00;0.00;;;;;;;;5049068;28;9198;-64
2023/08/27 14:06:19;;;;;;;;;2.00;2.00;;;;;;;;5030132;28;8830;-62
2023/08/27 14:08:44;;;;;;;;;0.67;0.67;;;;;;;;5050588;28;8769;-62
2023/08/27 14:11:09;;;;;;;;;1.00;1.00;;;;;;;;5042539;28;9566;-62
2023/08/27 14:13:38;;;;;;;;;1.00;0.00;;;;;;;;5050677;28;9023;-61
2023/08/27 14:16:03;;;;;;;;;3.00;2.25;;;;;;;;5049994;28;8797;-62
2023/08/27 14:18:28;;;;;;;;;3.33;3.33;;;;;;;;5045310;28;8909;-63
2023/08/27 14:20:53;;;;;;;;;4.00;3.00;;;;;;;;5050508;28;8927;-63
2023/08/27 14:23:20;;;;;;;;;2.67;2.00;;;;;;;;5050939;28;8808;-63
2023/08/27 14:25:45;;;;;;;;;2.00;2.00;;;;;;;;5047347;28;8803;-62
2023/08/27 14:28:10;;;;;;;;;3.00;2.00;;;;;;;;5046106;28;9580;-63
2023/08/27 14:30:36;;;;;;;;;2.00;2.00;;;;;;;;5032778;28;8959;-63
2023/08/27 14:33:02;;;;;;;;;2.00;2.00;;;;;;;;5039605;28;8810;-63
2023/08/27 14:35:28;;;;;;;;;15.25;14.50;;;;;;;;5036563;28;8779;-63
2023/08/27 14:37:53;;;;;;;;;0.00;0.00;;;;;;;;5040896;28;9842;-62
2023/08/27 14:40:18;;;;;;;;;1.33;1.33;;;;;;;;5049939;28;9527;-63
2023/08/27 14:42:43;;;;;;;;;11.00;8.33;;;;;;;;5050196;28;8832;-63
2023/08/27 14:45:09;;;;;;;;;2.00;2.00;;;;;;;;5039143;28;8845;-63